createdAt,value
2022-11-05T00:00:38.892Z,10.78
2022-11-05T00:03:24.948Z,10.68
2022-11-05T00:06:12.449Z,10.74
2022-11-05T00:08:59.153Z,10.68
2022-11-05T00:11:41.234Z,10.64
2022-11-05T00:14:26.296Z,10.60
2022-11-05T00:16:56.763Z,10.60
2022-11-05T00:19:25.216Z,10.59
2022-11-05T00:22:11.042Z,10.53
2022-11-05T00:24:57.073Z,10.44
2022-11-05T00:27:28.300Z,10.26
2022-11-05T00:29:56.597Z,10.23
2022-11-05T00:32:26.191Z,10.15
2022-11-05T00:34:55.124Z,10.08
2022-11-05T00:37:23.373Z,9.96
2022-11-05T00:39:51.906Z,9.92
2022-11-05T00:42:37.838Z,9.92
2022-11-05T00:45:07.921Z,9.94
2022-11-05T00:47:59.316Z,9.96
2022-11-05T00:50:29.236Z,9.98
2022-11-05T00:53:00.546Z,10.01
2022-11-05T00:55:33.724Z,9.95
2022-11-05T00:58:06.307Z,9.95
2022-11-05T01:00:36.957Z,9.94
2022-11-05T01:03:09.330Z,9.88
2022-11-05T01:05:42.196Z,9.82
2022-11-05T01:08:12.085Z,9.74
2022-11-05T01:10:43.910Z,9.67
2022-11-05T01:13:13.645Z,9.64
2022-11-05T01:15:43.700Z,9.57
2022-11-05T01:18:13.543Z,9.46
2022-11-05T01:20:42.554Z,9.40
2022-11-05T01:23:13.677Z,9.38
2022-11-05T01:25:43.546Z,9.31
2022-11-05T01:28:11.939Z,9.30
2022-11-05T01:30:41.686Z,9.22
2022-11-05T01:33:10.080Z,9.22
2022-11-05T01:35:40.757Z,9.16
2022-11-05T01:38:09.072Z,9.13
2022-11-05T01:40:37.305Z,9.10
2022-11-05T01:43:10.425Z,9.10
2022-11-05T01:45:38.993Z,9.07
2022-11-05T01:48:11.329Z,9.09
2022-11-05T01:50:48.081Z,9.13
2022-11-05T01:53:23.093Z,9.10
2022-11-05T01:55:56.270Z,9.10
2022-11-05T01:58:30.081Z,9.03
2022-11-05T02:00:59.881Z,9.05
2022-11-05T02:03:28.946Z,9.02
2022-11-05T02:06:05.591Z,8.98
2022-11-05T02:08:45.908Z,8.86
2022-11-05T02:11:17.369Z,8.83
2022-11-05T02:13:46.563Z,8.83
2022-11-05T02:16:24.987Z,8.82
2022-11-05T02:19:02.792Z,8.79
2022-11-05T02:21:57.768Z,8.76
2022-11-05T02:24:52.620Z,8.78
2022-11-05T02:27:34.874Z,8.73
2022-11-05T02:30:29.742Z,8.76
2022-11-05T02:33:15.023Z,8.71
2022-11-05T02:36:08.345Z,8.71
2022-11-05T02:38:42.401Z,8.71
2022-11-05T02:41:19.373Z,8.71
2022-11-05T02:43:55.965Z,8.64
2022-11-05T02:46:34.676Z,8.64
2022-11-05T02:49:15.151Z,8.59
2022-11-05T02:51:52.796Z,8.52
2022-11-05T02:54:27.964Z,8.52
2022-11-05T02:56:58.599Z,8.52
2022-11-05T02:59:27.784Z,8.51
2022-11-05T03:01:58.417Z,8.54
2022-11-05T03:04:28.053Z,8.55
2022-11-05T03:07:30.962Z,8.58
2022-11-05T03:10:31.982Z,8.55
2022-11-05T03:13:14.916Z,8.52
2022-11-05T03:15:57.883Z,8.51
2022-11-05T03:18:36.529Z,8.51
2022-11-05T03:21:11.116Z,8.54
2022-11-05T03:23:45.370Z,8.55
2022-11-05T03:26:18.279Z,8.57
2022-11-05T03:28:49.488Z,8.55
2022-11-05T03:31:19.387Z,8.57
2022-11-05T03:33:56.625Z,8.55
2022-11-05T03:36:28.568Z,8.54
2022-11-05T03:38:57.885Z,8.52
2022-11-05T03:41:29.630Z,8.55
2022-11-05T03:44:03.496Z,8.54
2022-11-05T03:46:35.722Z,8.54
2022-11-05T03:49:09.458Z,8.51
2022-11-05T03:51:45.707Z,8.54
2022-11-05T03:54:15.498Z,8.50
2022-11-05T03:56:56.145Z,8.48
2022-11-05T03:59:26.908Z,8.50
2022-11-05T04:01:56.029Z,8.45
2022-11-05T04:04:25.597Z,8.44
2022-11-05T04:07:11.008Z,8.45
2022-11-05T04:09:59.296Z,8.47
2022-11-05T04:12:45.258Z,8.44
2022-11-05T04:15:16.346Z,8.42
2022-11-05T04:17:45.101Z,8.42
2022-11-05T04:20:32.094Z,8.36
2022-11-05T04:23:18.855Z,8.31
2022-11-05T04:25:47.166Z,8.29
2022-11-05T04:28:15.876Z,8.27
2022-11-05T04:30:44.374Z,8.23
2022-11-05T04:33:14.812Z,8.19
2022-11-05T04:35:46.543Z,8.23
2022-11-05T04:38:16.868Z,8.26
2022-11-05T04:40:46.077Z,8.23
2022-11-05T04:43:17.534Z,8.21
2022-11-05T04:45:46.565Z,8.19
2022-11-05T04:48:15.293Z,8.20
2022-11-05T04:50:46.447Z,8.21
2022-11-05T04:53:14.824Z,8.21
2022-11-05T04:55:42.842Z,8.23
2022-11-05T04:58:13.884Z,8.23
2022-11-05T05:00:42.514Z,8.24
2022-11-05T05:03:12.085Z,8.23
2022-11-05T05:05:41.993Z,8.24
2022-11-05T05:08:13.413Z,8.23
2022-11-05T05:10:43.594Z,8.26
2022-11-05T05:13:13.975Z,8.31
2022-11-05T05:15:42.508Z,8.27
2022-11-05T05:18:12.622Z,8.29
2022-11-05T05:20:59.105Z,8.27
2022-11-05T05:23:28.970Z,8.34
2022-11-05T05:26:00.879Z,8.34
2022-11-05T05:28:31.658Z,8.30
2022-11-05T05:31:02.675Z,8.36
2022-11-05T05:33:31.245Z,8.37
2022-11-05T05:36:00.199Z,8.36
2022-11-05T05:38:31.388Z,8.36
2022-11-05T05:41:00.656Z,8.38
2022-11-05T05:43:32.801Z,8.41
2022-11-05T05:46:04.701Z,8.37
2022-11-05T05:48:33.067Z,8.37
2022-11-05T05:51:02.183Z,8.36
2022-11-05T05:53:35.901Z,8.37
2022-11-05T05:56:05.447Z,8.38
2022-11-05T05:58:35.989Z,8.38
2022-11-05T06:01:06.889Z,8.37
2022-11-05T06:03:35.682Z,8.42
2022-11-05T06:06:04.715Z,8.41
2022-11-05T06:08:35.472Z,8.37
2022-11-05T06:11:04.628Z,8.37
2022-11-05T06:13:33.648Z,8.40
2022-11-05T06:16:03.431Z,8.45
2022-11-05T06:18:34.296Z,8.44
2022-11-05T06:21:03.641Z,8.44
2022-11-05T06:23:32.787Z,8.44
2022-11-05T06:26:04.027Z,8.41
2022-11-05T06:28:34.671Z,8.40
2022-11-05T06:31:04.358Z,8.41
2022-11-05T06:33:33.283Z,8.40
2022-11-05T06:36:03.487Z,8.41
2022-11-05T06:38:34.331Z,8.37
2022-11-05T06:41:10.308Z,8.40
2022-11-05T06:43:41.295Z,8.37
2022-11-05T06:46:11.165Z,8.36
2022-11-05T06:48:40.831Z,8.41
2022-11-05T06:51:14.521Z,8.44
2022-11-05T06:53:43.061Z,8.41
2022-11-05T06:56:13.057Z,8.45
2022-11-05T06:58:42.669Z,8.48
2022-11-05T07:01:12.046Z,8.44
2022-11-05T07:03:40.990Z,8.45
2022-11-05T07:06:09.564Z,8.45
2022-11-05T07:08:39.423Z,8.51
2022-11-05T07:11:08.275Z,8.50
2022-11-05T07:13:38.915Z,8.54
2022-11-05T07:16:08.005Z,8.58
2022-11-05T07:18:36.687Z,8.64
2022-11-05T07:21:05.657Z,8.67
2022-11-05T07:23:39.132Z,8.69
2022-11-05T07:26:13.216Z,8.73
2022-11-05T07:28:44.317Z,8.75
2022-11-05T07:31:15.807Z,8.78
2022-11-05T07:33:45.764Z,8.76
2022-11-05T07:36:15.479Z,8.76
2022-11-05T07:38:45.561Z,8.75
2022-11-05T07:41:17.172Z,8.78
2022-11-05T07:43:52.052Z,8.78
2022-11-05T07:46:21.352Z,8.83
2022-11-05T07:48:51.785Z,8.80
2022-11-05T07:51:20.802Z,8.86
2022-11-05T07:53:51.183Z,8.89
2022-11-05T07:56:21.612Z,8.89
2022-11-05T07:58:53.424Z,8.96
2022-11-05T08:01:32.019Z,8.95
2022-11-05T08:04:00.393Z,8.96
2022-11-05T08:06:30.923Z,8.88
2022-11-05T08:09:02.308Z,8.93
2022-11-05T08:11:35.871Z,8.99
2022-11-05T08:14:07.747Z,8.96
2022-11-05T08:16:38.627Z,8.93
2022-11-05T08:19:06.636Z,8.92
2022-11-05T08:21:35.143Z,8.92
2022-11-05T08:24:06.597Z,8.95
2022-11-05T08:26:34.910Z,8.93
2022-11-05T08:29:05.704Z,9.00
2022-11-05T08:31:38.719Z,9.02
2022-11-05T08:34:06.712Z,9.13
2022-11-05T08:36:40.534Z,9.17
2022-11-05T08:39:15.791Z,9.24
2022-11-05T08:41:45.903Z,9.28
2022-11-05T08:44:17.053Z,9.41
2022-11-05T08:46:47.026Z,9.44
2022-11-05T08:49:19.310Z,9.51
2022-11-05T08:51:53.722Z,9.59
2022-11-05T08:54:23.865Z,9.65
2022-11-05T08:56:53.776Z,9.70
2022-11-05T08:59:22.558Z,9.78
2022-11-05T09:01:59.617Z,9.81
2022-11-05T09:04:29.224Z,9.92
2022-11-05T09:07:02.050Z,9.88
2022-11-05T09:09:35.537Z,9.94
2022-11-05T09:12:12.175Z,9.92
2022-11-05T09:14:43.731Z,9.92
2022-11-05T09:17:22.352Z,9.89
2022-11-05T09:19:54.024Z,9.95
2022-11-05T09:22:24.166Z,9.94
2022-11-05T09:24:54.054Z,9.94
2022-11-05T09:27:24.279Z,9.94
2022-11-05T09:30:00.201Z,10.02
2022-11-05T09:32:34.503Z,10.01
2022-11-05T09:35:07.652Z,10.03
2022-11-05T09:37:39.367Z,10.08
2022-11-05T09:40:09.036Z,10.13
2022-11-05T09:42:42.501Z,10.22
2022-11-05T09:45:17.912Z,10.28
2022-11-05T09:47:57.552Z,10.32
2022-11-05T09:50:31.559Z,10.40
2022-11-05T09:53:07.944Z,10.46
2022-11-05T09:55:39.889Z,10.53
2022-11-05T09:58:18.553Z,10.50
2022-11-05T10:00:52.411Z,10.73
2022-11-05T10:03:27.982Z,10.73
2022-11-05T10:06:15.415Z,10.82
2022-11-05T10:08:46.222Z,10.92
2022-11-05T10:11:19.752Z,11.00
2022-11-05T10:13:51.954Z,11.02
2022-11-05T10:16:25.308Z,10.97
2022-11-05T10:19:01.003Z,11.02
2022-11-05T10:21:59.448Z,10.98
2022-11-05T10:24:22.344Z,11.02
2022-11-05T10:26:55.810Z,11.08
2022-11-05T10:29:29.540Z,11.12
2022-11-05T10:31:59.726Z,11.25
2022-11-05T10:34:35.921Z,11.23
2022-11-05T10:37:05.128Z,11.16
2022-11-05T10:39:34.666Z,11.18
2022-11-05T10:42:24.423Z,11.18
2022-11-05T10:44:57.921Z,11.26
2022-11-05T10:47:50.005Z,11.33
2022-11-05T10:50:22.405Z,11.39
2022-11-05T10:52:59.626Z,11.39
2022-11-05T10:55:30.828Z,11.59
2022-11-05T10:58:10.138Z,11.66
2022-11-05T11:00:38.992Z,11.70
2022-11-05T11:03:33.736Z,11.77
2022-11-05T11:06:07.911Z,11.86
2022-11-05T11:08:37.904Z,11.74
2022-11-05T11:11:10.481Z,11.76
2022-11-05T11:14:02.898Z,11.91
2022-11-05T11:16:41.132Z,11.88
2022-11-05T11:19:26.699Z,11.95
2022-11-05T11:22:18.864Z,11.94
2022-11-05T11:24:48.320Z,11.91
2022-11-05T11:27:21.667Z,11.84
2022-11-05T11:30:02.970Z,11.88
2022-11-05T11:32:37.945Z,12.01
2022-11-05T11:35:08.015Z,12.10
2022-11-05T11:37:42.257Z,12.10
2022-11-05T11:40:18.256Z,11.95
2022-11-05T11:42:48.748Z,11.88
2022-11-05T11:45:19.911Z,11.86
2022-11-05T11:47:52.423Z,11.93
2022-11-05T11:50:36.178Z,11.99
2022-11-05T11:53:28.163Z,12.10
2022-11-05T11:56:14.523Z,12.25
2022-11-05T11:58:46.141Z,12.26
2022-11-05T12:01:37.538Z,12.34
2022-11-05T12:04:21.579Z,12.34
2022-11-05T12:07:01.956Z,12.22
2022-11-05T12:09:43.292Z,12.13
2022-11-05T12:12:13.217Z,12.15
2022-11-05T12:14:51.150Z,12.07
2022-11-05T12:17:27.059Z,12.08
2022-11-05T12:20:24.917Z,12.13
2022-11-05T12:23:15.366Z,12.11
2022-11-05T12:25:51.759Z,12.11
2022-11-05T12:29:04.775Z,12.20
2022-11-05T12:31:38.389Z,12.15
2022-11-05T12:34:26.973Z,12.14
2022-11-05T12:37:08.885Z,12.13
2022-11-05T12:39:52.417Z,12.13
2022-11-05T12:42:37.761Z,12.10
2022-11-05T12:45:20.214Z,12.14
2022-11-05T12:48:00.133Z,12.15
2022-11-05T12:50:35.666Z,12.17
2022-11-05T12:53:35.624Z,12.14
2022-11-05T12:56:14.803Z,12.17
2022-11-05T12:58:50.551Z,12.14
2022-11-05T13:01:24.514Z,12.18
2022-11-05T13:03:57.331Z,12.22
2022-11-05T13:06:34.094Z,12.25
2022-11-05T13:09:06.051Z,12.29
2022-11-05T13:11:36.242Z,12.24
2022-11-05T13:14:12.818Z,12.24
2022-11-05T13:16:45.040Z,12.25
2022-11-05T13:19:18.861Z,12.20
2022-11-05T13:21:54.681Z,12.17
2022-11-05T13:24:27.623Z,12.21
2022-11-05T13:27:02.584Z,12.22
2022-11-05T13:29:36.815Z,12.20
2022-11-05T13:32:13.271Z,12.11
2022-11-05T13:34:41.911Z,12.17
2022-11-05T13:37:29.868Z,12.17
2022-11-05T13:40:01.576Z,12.18
2022-11-05T13:42:53.850Z,12.17
2022-11-05T13:45:40.168Z,12.13
2022-11-05T13:48:31.327Z,12.13
2022-11-05T13:51:32.407Z,12.13
2022-11-05T13:54:36.486Z,12.14
2022-11-05T13:57:42.458Z,12.15
2022-11-05T14:00:16.946Z,12.11
2022-11-05T14:02:51.740Z,12.13
2022-11-05T14:05:28.866Z,12.07
2022-11-05T14:08:00.524Z,12.10
2022-11-05T14:10:36.029Z,12.11
2022-11-05T14:13:23.257Z,12.11
2022-11-05T14:16:02.305Z,12.08
2022-11-05T14:18:41.721Z,12.11
2022-11-05T14:21:48.398Z,12.10
2022-11-05T14:24:28.669Z,12.05
2022-11-05T14:27:53.851Z,12.02
2022-11-05T14:30:42.274Z,12.02
2022-11-05T14:33:32.037Z,12.01
2022-11-05T14:36:32.204Z,11.97
2022-11-05T14:39:14.814Z,11.95
2022-11-05T14:41:59.014Z,11.97
2022-11-05T14:44:28.413Z,11.95
2022-11-05T14:47:06.398Z,11.98
2022-11-05T14:49:38.896Z,11.95
2022-11-05T14:52:12.185Z,11.91
2022-11-05T14:54:45.550Z,11.90
2022-11-05T14:57:16.043Z,11.90
2022-11-05T15:00:03.340Z,11.91
2022-11-05T15:02:40.112Z,11.90
2022-11-05T15:05:38.536Z,11.88
2022-11-05T15:08:32.018Z,11.86
2022-11-05T15:11:10.406Z,11.80
2022-11-05T15:13:49.349Z,11.77
2022-11-05T15:16:22.102Z,11.78
2022-11-05T15:18:51.715Z,11.74
2022-11-05T15:21:22.351Z,11.71
2022-11-05T15:23:57.644Z,11.70
2022-11-05T15:26:36.523Z,11.66
2022-11-05T15:29:19.634Z,11.66
2022-11-05T15:31:48.533Z,11.67
2022-11-05T15:34:21.661Z,11.60
2022-11-05T15:36:54.011Z,11.63
2022-11-05T15:39:30.343Z,11.60
2022-11-05T15:42:00.017Z,11.60
2022-11-05T15:44:31.034Z,11.57
2022-11-05T15:47:13.544Z,11.57
2022-11-05T15:49:45.600Z,11.62
2022-11-05T15:52:18.783Z,11.55
2022-11-05T15:55:07.986Z,11.62
2022-11-05T15:57:40.509Z,11.59
2022-11-05T16:00:18.568Z,11.60
2022-11-05T16:02:56.445Z,11.55
2022-11-05T16:05:27.985Z,11.55
2022-11-05T16:08:00.115Z,11.50
2022-11-05T16:10:31.491Z,11.49
2022-11-05T16:13:30.614Z,11.38
2022-11-05T16:16:01.571Z,11.39
2022-11-05T16:18:35.535Z,11.36
2022-11-05T16:21:06.872Z,11.35
2022-11-05T16:23:47.238Z,11.26
2022-11-05T16:29:29.633Z,11.16
2022-11-05T16:32:01.967Z,11.11
2022-11-05T16:34:36.641Z,11.09
2022-11-05T16:37:12.595Z,11.05
2022-11-05T16:39:41.993Z,11.00
2022-11-05T16:42:43.395Z,10.98
2022-11-05T16:45:14.928Z,10.91
2022-11-05T16:47:47.481Z,10.78
2022-11-05T16:50:26.959Z,10.77
2022-11-05T16:52:59.231Z,10.71
2022-11-05T16:55:27.938Z,10.68
2022-11-05T16:58:00.220Z,10.61
2022-11-05T17:00:31.510Z,10.59
2022-11-05T17:03:01.817Z,10.52
2022-11-05T17:05:32.223Z,10.47
2022-11-05T17:08:03.055Z,10.47
2022-11-05T17:10:33.813Z,10.43
2022-11-05T17:13:04.437Z,10.39
2022-11-05T17:15:35.812Z,10.30
2022-11-05T17:18:06.174Z,10.28
2022-11-05T17:20:40.654Z,10.20
2022-11-05T17:23:11.306Z,10.20
2022-11-05T17:25:42.942Z,10.16
2022-11-05T17:28:14.795Z,10.19
2022-11-05T17:30:51.697Z,10.15
2022-11-05T17:33:25.407Z,10.10
2022-11-05T17:35:55.762Z,10.10
2022-11-05T17:38:25.723Z,10.12
2022-11-05T17:40:54.698Z,10.08
2022-11-05T17:43:25.304Z,10.03
2022-11-05T17:45:55.814Z,10.05
2022-11-05T17:48:27.450Z,10.02
2022-11-05T17:50:56.848Z,10.03
2022-11-05T17:53:25.347Z,9.98
2022-11-05T17:55:53.779Z,9.95
2022-11-05T17:58:22.231Z,9.95
2022-11-05T18:00:52.445Z,9.92
2022-11-05T18:03:21.315Z,9.94
2022-11-05T18:05:52.910Z,9.92
2022-11-05T18:08:21.583Z,9.89
2022-11-05T18:10:56.043Z,9.86
2022-11-05T18:13:26.729Z,9.88
2022-11-05T18:15:56.395Z,9.88
2022-11-05T18:18:26.138Z,9.86
2022-11-05T18:20:58.433Z,9.88
2022-11-05T18:23:27.247Z,9.86
2022-11-05T18:25:56.393Z,9.85
2022-11-05T18:28:25.568Z,9.88
2022-11-05T18:30:57.237Z,9.86
2022-11-05T18:33:27.517Z,9.85
2022-11-05T18:36:00.533Z,9.86
2022-11-05T18:38:29.206Z,9.85
2022-11-05T18:40:57.879Z,9.89
2022-11-05T18:43:26.870Z,9.85
2022-11-05T18:46:00.105Z,9.91
2022-11-05T18:48:29.192Z,9.91
2022-11-05T18:51:01.861Z,9.88
2022-11-05T18:53:35.230Z,9.85
2022-11-05T18:56:09.509Z,9.89
2022-11-05T18:58:43.567Z,9.86
2022-11-05T19:01:19.647Z,9.86
2022-11-05T19:03:50.680Z,9.84
2022-11-05T19:06:22.326Z,9.81
2022-11-05T19:08:52.628Z,9.79
2022-11-05T19:11:23.598Z,9.81
2022-11-05T19:14:03.842Z,9.84
2022-11-05T19:16:33.882Z,9.79
2022-11-05T19:19:05.414Z,9.81
2022-11-05T19:21:35.384Z,9.82
2022-11-05T19:24:04.764Z,9.79
2022-11-05T19:26:33.372Z,9.77
2022-11-05T19:29:03.907Z,9.75
2022-11-05T19:31:35.318Z,9.77
2022-11-05T19:34:05.500Z,9.75
2022-11-05T19:36:34.466Z,9.70
2022-11-05T19:39:08.816Z,9.71
2022-11-05T19:41:37.972Z,9.73
2022-11-05T19:44:06.929Z,9.71
2022-11-05T19:46:37.824Z,9.67
2022-11-05T19:49:06.569Z,9.73
2022-11-05T19:51:35.620Z,9.71
2022-11-05T19:54:05.038Z,9.70
2022-11-05T19:56:36.050Z,9.68
2022-11-05T19:59:06.733Z,9.65
2022-11-05T20:01:36.822Z,9.65
2022-11-05T20:04:06.621Z,9.68
2022-11-05T20:06:40.040Z,9.68
2022-11-05T20:09:22.147Z,9.67
2022-11-05T20:11:53.265Z,9.65
2022-11-05T20:14:23.629Z,9.65
2022-11-05T20:16:54.085Z,9.67
2022-11-05T20:19:24.087Z,9.65
2022-11-05T20:22:01.046Z,9.65
2022-11-05T20:24:31.499Z,9.70
2022-11-05T20:27:01.648Z,9.68
2022-11-05T20:29:35.725Z,9.67
2022-11-05T20:32:07.949Z,9.67
2022-11-05T20:34:37.642Z,9.68
2022-11-05T20:37:08.145Z,9.67
2022-11-05T20:39:38.061Z,9.67
2022-11-05T20:42:07.011Z,9.68
2022-11-05T20:44:35.533Z,9.68
2022-11-05T20:47:07.128Z,9.67
2022-11-05T20:49:40.491Z,9.65
2022-11-05T20:52:18.114Z,9.65
2022-11-05T20:54:47.835Z,9.67
2022-11-05T20:57:18.265Z,9.71
2022-11-05T20:59:47.658Z,9.68
2022-11-05T21:02:17.776Z,9.64
2022-11-05T21:04:47.612Z,9.68
2022-11-05T21:07:19.482Z,9.65
2022-11-05T21:09:50.961Z,9.67
2022-11-05T21:12:22.230Z,9.70
2022-11-05T21:14:53.589Z,9.71
2022-11-05T21:17:23.758Z,9.68
2022-11-05T21:19:53.406Z,9.71
2022-11-05T21:22:21.761Z,9.71
2022-11-05T21:24:50.388Z,9.70
2022-11-05T21:27:19.841Z,9.70
2022-11-05T21:29:48.703Z,9.71
2022-11-05T21:32:17.162Z,9.71
2022-11-05T21:34:46.840Z,9.71
2022-11-05T21:37:15.480Z,9.71
2022-11-05T21:39:47.806Z,9.70
2022-11-05T21:42:16.384Z,9.73
2022-11-05T21:44:47.385Z,9.71
2022-11-05T21:47:16.201Z,9.70
2022-11-05T21:49:45.918Z,9.70
2022-11-05T21:52:31.627Z,9.67
2022-11-05T21:55:17.447Z,9.68
2022-11-05T21:58:04.021Z,9.70
2022-11-05T22:00:34.058Z,9.74
2022-11-05T22:03:02.125Z,9.73
2022-11-05T22:05:32.742Z,9.71
2022-11-05T22:08:01.066Z,9.75
2022-11-05T22:10:29.235Z,9.71
2022-11-05T22:12:57.252Z,9.70
2022-11-05T22:15:25.894Z,9.74
2022-11-05T22:17:56.283Z,9.70
2022-11-05T22:20:28.161Z,9.71
2022-11-05T22:23:12.094Z,9.73
2022-11-05T22:25:42.416Z,9.71
2022-11-05T22:28:11.217Z,9.70
2022-11-05T22:30:42.116Z,9.73
2022-11-05T22:33:12.305Z,9.71
2022-11-05T22:35:42.065Z,9.75
2022-11-05T22:38:13.258Z,9.68
2022-11-05T22:40:43.944Z,9.71
2022-11-05T22:43:14.166Z,9.73
2022-11-05T22:45:44.238Z,9.74
2022-11-05T22:48:15.819Z,9.73
2022-11-05T22:50:44.240Z,9.71
2022-11-05T22:53:17.938Z,9.73
2022-11-05T22:55:47.595Z,9.73
2022-11-05T22:58:16.908Z,9.73
2022-11-05T23:00:45.621Z,9.71
2022-11-05T23:03:14.309Z,9.77
2022-11-05T23:05:48.259Z,9.71
2022-11-05T23:08:39.230Z,9.67
2022-11-05T23:11:32.717Z,9.74
2022-11-05T23:14:04.157Z,9.75
2022-11-05T23:16:58.175Z,9.73
2022-11-05T23:19:49.853Z,9.75
2022-11-05T23:22:38.565Z,9.74
2022-11-05T23:25:11.490Z,9.73
2022-11-05T23:27:41.210Z,9.75
2022-11-05T23:30:16.571Z,9.75
2022-11-05T23:32:50.059Z,9.73
2022-11-05T23:35:38.671Z,9.75
2022-11-05T23:38:25.049Z,9.77
2022-11-05T23:41:14.351Z,9.77
2022-11-05T23:44:00.534Z,9.73
2022-11-05T23:46:49.583Z,9.77
2022-11-05T23:49:19.522Z,9.78
2022-11-05T23:51:47.576Z,9.75
2022-11-05T23:54:20.491Z,9.75
2022-11-05T23:56:51.447Z,9.71
2022-11-05T23:59:23.239Z,9.70
